Lackland AFB, Texas
Current Conditions -  °F | °C
As of 4:08 AM on Thursday 29 Jan 2015 (Local Time) from KSKF Reporting Station
Few Clouds Few Clouds  
Wind Chill: 48°   Ceiling: Unl
Heat Index: 48°   Visibility: 10mi
Dew Point: 46°   Wind: 2mph
Humidity: 93%   Direction: 360°N
Pressure: 30.12"   Gusts: NA
Location:  29.3853°N, 98.6099°W
Report Text: KSKF 291008Z AUTO 36002KT 10SM FEW005 09/08 A3012 RMK AO2 $
Loading
Personal Weather Stations






























Interactive Weather Map New forecast layout! Learn more

10-Day Weather Forecast

Advertisements
Track Severe Weather on mobile